createdAt,value
2019-04-03T00:02:04.039Z,75.20
2019-04-03T00:04:31.126Z,74.80
2019-04-03T00:06:58.649Z,74.90
2019-04-03T00:09:26.253Z,74.80
2019-04-03T00:11:56.634Z,74.10
2019-04-03T00:14:24.238Z,74.60
2019-04-03T00:16:54.429Z,74.50
2019-04-03T00:19:22.297Z,74.40
2019-04-03T00:21:50.639Z,73.70
2019-04-03T00:24:18.735Z,74.40
2019-04-03T00:26:46.296Z,74.20
2019-04-03T00:29:14.058Z,74.50
2019-04-03T00:31:47.681Z,74.20
2019-04-03T00:34:18.328Z,74.50
2019-04-03T00:36:45.890Z,75.20
2019-04-03T00:39:13.487Z,75.30
2019-04-03T00:41:42.346Z,75.30
2019-04-03T00:44:09.968Z,75.80
2019-04-03T00:46:37.848Z,76.30
2019-04-03T00:49:05.828Z,76.30
2019-04-03T00:51:36.577Z,77.00
2019-04-03T00:54:04.255Z,76.90
2019-04-03T00:56:34.452Z,76.60
2019-04-03T00:59:02.120Z,76.80
2019-04-03T01:01:30.106Z,76.60
2019-04-03T01:03:58.887Z,76.60
2019-04-03T01:06:28.696Z,76.60
2019-04-03T01:08:59.018Z,76.70
2019-04-03T01:11:26.248Z,76.90
2019-04-03T01:13:53.833Z,77.40
2019-04-03T01:16:21.669Z,77.90
2019-04-03T01:18:49.559Z,78.00
2019-04-03T01:21:17.208Z,78.00
2019-04-03T01:23:44.970Z,78.20
2019-04-03T01:26:13.322Z,78.10
2019-04-03T01:28:41.956Z,79.20
2019-04-03T01:31:10.303Z,79.00
2019-04-03T01:33:37.921Z,78.90
2019-04-03T01:36:05.537Z,79.10
2019-04-03T01:38:33.404Z,79.10
2019-04-03T01:41:01.040Z,78.80
2019-04-03T01:43:29.078Z,78.90
2019-04-03T01:45:57.240Z,79.00
2019-04-03T01:48:24.926Z,79.40
2019-04-03T01:50:52.681Z,79.10
2019-04-03T01:53:20.307Z,79.30
2019-04-03T01:55:48.582Z,79.60
2019-04-03T01:58:16.071Z,80.50
2019-04-03T02:00:43.646Z,80.30
2019-04-03T02:03:11.171Z,80.10
2019-04-03T02:05:38.758Z,80.30
2019-04-03T02:08:16.975Z,80.50
2019-04-03T02:10:45.057Z,80.00
2019-04-03T02:13:28.068Z,80.50
2019-04-03T02:16:01.628Z,80.80
2019-04-03T02:18:32.981Z,81.10
2019-04-03T02:21:03.080Z,81.30
2019-04-03T02:23:31.235Z,81.40
2019-04-03T02:25:58.831Z,81.40
2019-04-03T02:28:26.596Z,81.80
2019-04-03T02:30:54.633Z,81.80
2019-04-03T02:33:22.257Z,81.50
2019-04-03T02:35:49.833Z,81.10
2019-04-03T02:38:21.317Z,81.40
2019-04-03T02:40:47.142Z,81.20
2019-04-03T02:43:15.600Z,81.30
2019-04-03T02:45:43.431Z,81.00
2019-04-03T02:48:10.963Z,81.30
2019-04-03T02:50:38.748Z,81.30
2019-04-03T02:53:07.913Z,81.10
2019-04-03T02:55:39.337Z,80.80
2019-04-03T02:58:05.380Z,80.80
2019-04-03T03:00:36.439Z,81.10
2019-04-03T03:03:04.251Z,81.10
2019-04-03T03:05:35.015Z,81.20
2019-04-03T03:08:02.564Z,81.30
2019-04-03T03:10:31.918Z,81.30
2019-04-03T03:13:01.760Z,81.30
2019-04-03T03:15:29.368Z,81.40
2019-04-03T03:17:57.398Z,81.10
2019-04-03T03:20:27.801Z,81.90
2019-04-03T03:22:56.959Z,81.90
2019-04-03T03:25:25.164Z,82.40
2019-04-03T03:27:53.561Z,82.70
2019-04-03T03:30:41.097Z,82.60
2019-04-03T03:33:19.304Z,83.40
2019-04-03T03:35:31.250Z,83.60
2019-04-03T03:37:53.296Z,83.70
2019-04-03T03:40:21.449Z,83.30
2019-04-03T03:43:09.321Z,83.30
2019-04-03T03:45:37.212Z,83.60
2019-04-03T03:48:08.554Z,84.00
2019-04-03T03:50:35.978Z,84.40
2019-04-03T03:53:04.149Z,84.20
2019-04-03T03:55:32.019Z,84.80
2019-04-03T03:58:00.690Z,84.50
2019-04-03T04:00:28.774Z,85.00
2019-04-03T04:02:57.691Z,85.10
2019-04-03T04:05:25.649Z,84.90
2019-04-03T04:07:54.559Z,85.20
2019-04-03T04:10:25.184Z,85.40
2019-04-03T04:12:53.085Z,86.10
2019-04-03T04:15:21.183Z,86.10
2019-04-03T04:17:50.955Z,86.90
2019-04-03T04:20:18.686Z,86.80
2019-04-03T04:22:50.802Z,86.80
2019-04-03T04:25:17.052Z,86.90
2019-04-03T04:27:44.860Z,87.40
2019-04-03T04:30:16.768Z,87.90
2019-04-03T04:32:46.201Z,88.10
2019-04-03T04:35:14.299Z,88.30
2019-04-03T04:37:42.074Z,89.20
2019-04-03T04:40:09.989Z,88.70
2019-04-03T04:42:37.717Z,87.20
2019-04-03T04:45:05.866Z,86.00
2019-04-03T04:47:33.579Z,85.40
2019-04-03T04:50:01.089Z,85.30
2019-04-03T04:52:28.634Z,85.40
2019-04-03T04:54:56.209Z,85.00
2019-04-03T04:57:23.855Z,84.80
2019-04-03T04:59:51.418Z,84.80
2019-04-03T05:02:19.871Z,84.60
2019-04-03T05:04:48.133Z,84.30
2019-04-03T05:07:17.088Z,84.90
2019-04-03T05:09:44.993Z,83.70
2019-04-03T05:12:12.665Z,83.60
2019-04-03T05:14:40.209Z,82.90
2019-04-03T05:17:07.823Z,82.50
2019-04-03T05:19:35.407Z,82.40
2019-04-03T05:22:02.981Z,81.80
2019-04-03T05:24:30.818Z,81.70
2019-04-03T05:26:58.539Z,81.40
2019-04-03T05:29:26.156Z,80.40
2019-04-03T05:31:54.130Z,80.20
2019-04-03T05:34:21.640Z,79.60
2019-04-03T05:36:49.193Z,79.90
2019-04-03T05:39:17.004Z,79.40
2019-04-03T05:41:44.888Z,78.80
2019-04-03T05:44:12.693Z,79.20
2019-04-03T05:46:40.593Z,77.90
2019-04-03T05:49:10.793Z,77.70
2019-04-03T05:51:37.955Z,77.60
2019-04-03T05:56:35.231Z,74.50
2019-04-03T05:59:03.699Z,74.10
2019-04-03T06:01:31.730Z,73.80
2019-04-03T06:03:59.747Z,70.90
2019-04-03T06:06:27.504Z,72.40
2019-04-03T06:08:58.218Z,70.00
2019-04-03T06:11:26.445Z,70.00
2019-04-03T06:13:54.333Z,74.30
2019-04-03T06:16:24.572Z,70.10
2019-04-03T06:18:52.090Z,71.70
2019-04-03T06:21:20.273Z,68.70
2019-04-03T06:23:48.525Z,68.10
2019-04-03T06:26:16.508Z,66.80
2019-04-03T06:28:46.360Z,66.40
2019-04-03T06:31:14.649Z,65.50
2019-04-03T06:33:42.582Z,65.40
2019-04-03T06:36:10.357Z,66.90
2019-04-03T06:38:38.220Z,62.90
2019-04-03T06:41:07.784Z,62.90
2019-04-03T06:43:35.807Z,64.60
2019-04-03T06:46:03.780Z,64.10
2019-04-03T06:48:31.865Z,63.20
2019-04-03T06:50:59.751Z,62.50
2019-04-03T06:53:28.790Z,59.90
2019-04-03T06:55:58.771Z,60.20
2019-04-03T06:58:36.846Z,61.00
2019-04-03T07:00:56.670Z,60.00
2019-04-03T07:03:24.790Z,58.50
2019-04-03T07:05:52.774Z,60.30
2019-04-03T07:08:30.064Z,58.50
2019-04-03T07:10:54.900Z,57.50
2019-04-03T07:13:20.610Z,56.30
2019-04-03T07:15:49.081Z,55.30
2019-04-03T07:18:16.985Z,57.00
2019-04-03T07:20:46.292Z,56.50
2019-04-03T07:23:14.195Z,52.80
2019-04-03T07:25:42.103Z,55.90
2019-04-03T07:28:10.296Z,51.50
2019-04-03T07:30:38.311Z,53.30
2019-04-03T07:33:06.455Z,54.40
2019-04-03T07:35:34.271Z,53.70
2019-04-03T07:38:02.588Z,52.20
2019-04-03T07:40:30.777Z,53.40
2019-04-03T07:43:00.323Z,51.40
2019-04-03T07:45:28.199Z,53.00
2019-04-03T07:47:56.006Z,50.90
2019-04-03T07:50:24.098Z,49.70
2019-04-03T07:52:52.247Z,50.80
2019-04-03T07:55:20.587Z,50.90
2019-04-03T07:57:52.787Z,51.80
2019-04-03T08:00:21.107Z,52.10
2019-04-03T08:02:50.029Z,50.90
2019-04-03T08:05:19.645Z,51.20
2019-04-03T08:07:48.888Z,51.10
2019-04-03T08:10:16.957Z,53.00
2019-04-03T08:12:45.022Z,51.80
2019-04-03T08:15:13.898Z,52.60
2019-04-03T08:17:42.007Z,49.40
2019-04-03T08:20:10.298Z,49.70
2019-04-03T08:22:38.096Z,49.00
2019-04-03T08:25:06.686Z,50.20
2019-04-03T08:27:34.808Z,49.30
2019-04-03T08:30:03.552Z,50.30
2019-04-03T08:32:31.561Z,50.10
2019-04-03T08:35:02.797Z,49.10
2019-04-03T08:37:32.631Z,48.90
2019-04-03T08:40:00.774Z,49.30
2019-04-03T08:42:30.798Z,50.10
2019-04-03T08:44:58.324Z,47.20
2019-04-03T08:47:26.392Z,48.30
2019-04-03T08:49:56.448Z,48.30
2019-04-03T08:52:24.068Z,47.60
2019-04-03T08:54:52.022Z,47.00
2019-04-03T08:57:22.323Z,47.40
2019-04-03T08:59:51.724Z,48.60
2019-04-03T09:02:19.823Z,49.70
2019-04-03T09:04:48.724Z,49.20
2019-04-03T09:07:16.519Z,49.30
2019-04-03T09:09:44.926Z,50.50
2019-04-03T09:12:12.771Z,47.30
2019-04-03T09:14:40.931Z,48.60
2019-04-03T09:17:08.631Z,49.10
2019-04-03T09:19:40.705Z,49.80
2019-04-03T09:22:09.075Z,47.60
2019-04-03T09:24:37.081Z,48.80
2019-04-03T09:27:05.007Z,49.40
2019-04-03T09:29:33.160Z,49.60
2019-04-03T09:32:01.465Z,47.90
2019-04-03T09:34:30.497Z,49.30
2019-04-03T09:36:59.698Z,48.40
2019-04-03T09:39:27.961Z,48.30
2019-04-03T09:42:16.810Z,46.20
2019-04-03T09:44:44.721Z,46.90
2019-04-03T09:47:13.208Z,47.10
2019-04-03T09:49:43.795Z,47.30
2019-04-03T09:52:10.716Z,47.80
2019-04-03T09:54:38.432Z,48.40
2019-04-03T09:57:06.045Z,47.40
2019-04-03T09:59:33.811Z,47.60
2019-04-03T10:02:01.799Z,46.50
2019-04-03T10:04:29.707Z,47.10
2019-04-03T10:06:57.484Z,46.50
2019-04-03T10:09:25.195Z,46.00
2019-04-03T10:11:52.873Z,45.90
2019-04-03T10:14:20.718Z,46.00
2019-04-03T10:16:48.611Z,45.20
2019-04-03T10:19:16.200Z,45.10
2019-04-03T10:21:43.768Z,45.00
2019-04-03T10:24:11.387Z,44.50
2019-04-03T10:26:40.277Z,45.10
2019-04-03T10:29:08.297Z,44.90
2019-04-03T10:31:36.106Z,44.60
2019-04-03T10:34:04.202Z,44.60
2019-04-03T10:36:32.213Z,43.50
2019-04-03T10:39:00.177Z,43.00
2019-04-03T10:41:28.748Z,42.30
2019-04-03T10:43:56.965Z,43.40
2019-04-03T10:46:24.665Z,42.00
2019-04-03T10:48:52.206Z,41.10
2019-04-03T10:51:19.722Z,41.70
2019-04-03T10:53:47.271Z,40.50
2019-04-03T10:56:14.862Z,40.30
2019-04-03T10:58:43.749Z,40.30
2019-04-03T11:01:11.425Z,41.60
2019-04-03T11:03:38.988Z,42.20
2019-04-03T11:06:06.529Z,42.30
2019-04-03T11:08:34.126Z,41.20
2019-04-03T11:11:04.261Z,41.60
2019-04-03T11:13:33.740Z,42.50
2019-04-03T11:16:00.314Z,42.60
2019-04-03T11:18:28.235Z,41.90
2019-04-03T11:20:55.807Z,41.90
2019-04-03T11:23:36.861Z,41.60
2019-04-03T11:25:52.711Z,41.20
2019-04-03T11:28:20.723Z,41.40
2019-04-03T11:30:51.122Z,41.80
2019-04-03T11:33:17.942Z,41.50
2019-04-03T11:35:45.628Z,41.40
2019-04-03T11:38:21.036Z,41.00
2019-04-03T11:40:42.397Z,40.30
2019-04-03T11:43:09.950Z,39.70
2019-04-03T11:45:37.431Z,40.00
2019-04-03T11:48:05.306Z,40.00
2019-04-03T11:50:32.945Z,39.40
2019-04-03T11:53:02.407Z,39.10
2019-04-03T11:55:30.024Z,39.20
2019-04-03T11:57:58.124Z,40.20
2019-04-03T12:00:29.943Z,38.90
2019-04-03T12:02:57.683Z,38.10
2019-04-03T12:05:25.340Z,39.20
2019-04-03T12:07:55.612Z,38.20
2019-04-03T12:10:24.909Z,38.10
2019-04-03T12:12:51.952Z,39.30
2019-04-03T12:15:21.536Z,38.30
2019-04-03T12:17:48.990Z,38.70
2019-04-03T12:20:16.770Z,38.50
2019-04-03T12:22:44.448Z,37.60
2019-04-03T12:25:12.865Z,37.50
2019-04-03T12:27:40.600Z,36.80
2019-04-03T12:30:08.676Z,36.60
2019-04-03T12:32:40.998Z,36.90
2019-04-03T12:35:07.280Z,37.50
2019-04-03T12:37:35.989Z,37.70
2019-04-03T12:40:05.041Z,37.60
2019-04-03T12:42:32.620Z,37.20
2019-04-03T12:45:00.234Z,37.60
2019-04-03T12:47:28.690Z,37.50
2019-04-03T12:49:56.649Z,37.40
2019-04-03T12:52:24.379Z,37.30
2019-04-03T12:54:53.760Z,36.60
2019-04-03T12:57:21.365Z,37.60
2019-04-03T12:59:48.972Z,38.50
2019-04-03T13:02:17.327Z,38.10
2019-04-03T13:04:45.037Z,38.00
2019-04-03T13:07:14.133Z,37.50
2019-04-03T13:09:42.109Z,36.50
2019-04-03T13:12:09.998Z,36.70
2019-04-03T13:14:37.560Z,37.30
2019-04-03T13:17:05.152Z,37.50
2019-04-03T13:19:33.006Z,35.50
2019-04-03T13:22:00.587Z,36.00
2019-04-03T13:24:28.233Z,36.40
2019-04-03T13:26:58.013Z,35.80
2019-04-03T13:29:25.495Z,36.40
2019-04-03T13:31:53.090Z,36.10
2019-04-03T13:34:20.851Z,34.40
2019-04-03T13:36:50.987Z,35.00
2019-04-03T13:39:17.917Z,34.00
2019-04-03T13:41:46.019Z,34.70
2019-04-03T13:44:13.639Z,34.20
2019-04-03T13:46:48.903Z,34.70
2019-04-03T13:49:18.055Z,33.40
2019-04-03T13:51:45.895Z,33.10
2019-04-03T13:54:13.691Z,34.60
2019-04-03T13:56:43.118Z,34.40
2019-04-03T13:59:10.854Z,33.00
2019-04-03T14:01:40.263Z,33.00
2019-04-03T14:04:07.947Z,33.20
2019-04-03T14:06:36.227Z,33.50
2019-04-03T14:09:06.467Z,32.30
2019-04-03T14:11:34.238Z,33.10
2019-04-03T14:14:01.766Z,33.20
2019-04-03T14:16:29.534Z,33.90
2019-04-03T14:18:57.126Z,33.70
2019-04-03T14:21:27.348Z,34.80
2019-04-03T14:23:54.261Z,35.10
2019-04-03T14:26:21.766Z,35.20
2019-04-03T14:28:49.368Z,35.90
2019-04-03T14:31:18.089Z,36.50
2019-04-03T14:33:47.166Z,37.10
2019-04-03T14:36:18.481Z,37.70
2019-04-03T14:38:44.782Z,38.10
2019-04-03T14:41:12.869Z,38.70
2019-04-03T14:43:40.782Z,40.50
2019-04-03T14:46:08.531Z,44.20
2019-04-03T14:48:36.295Z,44.90
2019-04-03T14:51:07.197Z,46.40
2019-04-03T14:53:35.575Z,46.00
2019-04-03T14:56:06.224Z,46.90
2019-04-03T14:58:34.023Z,46.60
2019-04-03T15:01:03.174Z,51.60
2019-04-03T15:03:33.518Z,55.90
2019-04-03T15:06:01.358Z,60.90
2019-04-03T15:08:29.677Z,62.90
2019-04-03T15:10:57.772Z,63.60
2019-04-03T15:13:36.695Z,66.00
2019-04-03T15:16:05.763Z,67.40
2019-04-03T15:18:36.556Z,67.90
2019-04-03T15:21:04.245Z,69.00
2019-04-03T15:24:17.706Z,67.90
2019-04-03T15:26:55.041Z,62.50
2019-04-03T15:45:34.212Z,50.80
2019-04-03T15:48:01.842Z,51.90
2019-04-03T15:50:32.110Z,50.40
2019-04-03T15:52:59.179Z,50.10
2019-04-03T15:55:27.282Z,48.30
2019-04-03T15:57:55.053Z,49.80
2019-04-03T16:00:25.252Z,50.60
2019-04-03T16:02:52.998Z,52.70
2019-04-03T16:05:30.140Z,51.20
2019-04-03T16:07:56.301Z,50.00
2019-04-03T16:10:24.663Z,50.90
2019-04-03T16:12:56.792Z,51.00
2019-04-03T16:15:24.634Z,50.00
2019-04-03T16:17:52.246Z,48.90
2019-04-03T16:20:20.323Z,49.50
2019-04-03T16:23:03.852Z,49.10
2019-04-03T16:25:38.391Z,50.10
2019-04-03T16:28:09.759Z,52.10
2019-04-03T16:30:38.144Z,52.80
2019-04-03T16:33:13.656Z,54.00
2019-04-03T16:35:35.107Z,53.70
2019-04-03T16:38:02.785Z,53.90
2019-04-03T16:40:31.756Z,53.60
2019-04-03T16:43:00.154Z,53.20
2019-04-03T16:45:28.806Z,52.90
2019-04-03T16:47:56.544Z,51.60
2019-04-03T16:50:27.306Z,52.40
2019-04-03T16:52:54.526Z,50.20
2019-04-03T16:55:22.812Z,50.20
2019-04-03T16:57:53.238Z,49.90
2019-04-03T17:00:22.746Z,50.00
2019-04-03T17:02:50.667Z,50.70
2019-04-03T17:05:18.829Z,50.40
2019-04-03T17:07:48.691Z,51.00
2019-04-03T17:10:16.939Z,51.80
2019-04-03T17:12:46.052Z,54.30
2019-04-03T17:15:14.693Z,56.80
2019-04-03T17:17:45.692Z,58.60
2019-04-03T17:20:16.204Z,58.40
2019-04-03T17:22:46.156Z,59.60
2019-04-03T17:25:16.342Z,60.30
2019-04-03T17:27:54.089Z,60.60
2019-04-03T17:30:18.270Z,61.00
2019-04-03T17:32:47.810Z,61.20
2019-04-03T17:35:16.261Z,61.60
2019-04-03T17:37:43.822Z,61.50
2019-04-03T17:40:12.278Z,61.60
2019-04-03T17:42:41.980Z,61.50
2019-04-03T17:45:09.898Z,61.80
2019-04-03T17:47:41.203Z,61.80
2019-04-03T17:50:12.994Z,61.60
2019-04-03T17:52:40.663Z,61.10
2019-04-03T17:55:10.053Z,61.80
2019-04-03T17:57:38.876Z,61.50
2019-04-03T18:00:09.618Z,61.60
2019-04-03T18:02:39.634Z,61.50
2019-04-03T18:05:19.595Z,61.40
2019-04-03T18:07:47.149Z,61.80
2019-04-03T18:10:16.716Z,62.50
2019-04-03T18:12:45.869Z,62.10
2019-04-03T18:15:14.064Z,61.80
2019-04-03T18:17:41.608Z,62.10
2019-04-03T18:20:12.577Z,61.90
2019-04-03T18:22:38.803Z,62.10
2019-04-03T18:25:08.341Z,62.60
2019-04-03T18:27:36.611Z,62.80
2019-04-03T18:30:07.283Z,63.90
2019-04-03T18:32:34.912Z,64.00
2019-04-03T18:35:25.566Z,64.40
2019-04-03T18:37:52.721Z,65.10
2019-04-03T18:40:20.346Z,65.80
2019-04-03T18:42:51.416Z,66.70
2019-04-03T18:45:25.529Z,66.80
2019-04-03T18:47:51.252Z,67.20
2019-04-03T18:50:19.072Z,68.20
2019-04-03T18:52:46.629Z,68.90
2019-04-03T18:55:14.797Z,69.10
2019-04-03T18:57:42.457Z,69.30
2019-04-03T19:00:10.483Z,69.60
2019-04-03T19:02:38.049Z,70.10
2019-04-03T19:05:08.763Z,70.10
2019-04-03T19:07:36.946Z,70.70
2019-04-03T19:10:07.429Z,71.30
2019-04-03T19:12:36.040Z,71.80
2019-04-03T19:15:17.598Z,73.00
2019-04-03T19:17:59.527Z,73.40
2019-04-03T19:20:17.922Z,74.90
2019-04-03T19:22:45.544Z,75.60
2019-04-03T19:25:13.847Z,75.00
2019-04-03T19:28:16.177Z,75.50
2019-04-03T19:30:16.041Z,77.90
2019-04-03T19:32:44.001Z,78.20
2019-04-03T19:35:36.301Z,76.30
2019-04-03T19:38:05.025Z,77.00
2019-04-03T19:40:33.198Z,77.70
2019-04-03T19:43:00.861Z,77.90
2019-04-03T19:45:29.064Z,78.80
2019-04-03T19:47:56.855Z,78.80
2019-04-03T19:50:32.471Z,79.10
2019-04-03T19:52:57.463Z,77.90
2019-04-03T19:55:25.127Z,78.60
2019-04-03T19:57:52.886Z,78.00
2019-04-03T20:00:20.508Z,77.80
2019-04-03T20:02:48.786Z,79.80
2019-04-03T20:05:18.554Z,78.80
2019-04-03T20:07:45.732Z,79.00
2019-04-03T20:10:13.796Z,78.80
2019-04-03T20:12:41.336Z,78.80
2019-04-03T20:15:09.208Z,78.60
2019-04-03T20:17:37.089Z,79.10
2019-04-03T20:20:06.659Z,78.80
2019-04-03T20:22:37.156Z,78.40
2019-04-03T20:25:03.995Z,80.30
2019-04-03T20:27:31.738Z,79.40
2019-04-03T20:30:01.522Z,79.80
2019-04-03T20:32:29.071Z,80.90
2019-04-03T20:34:57.851Z,80.40
2019-04-03T20:37:27.208Z,81.50
2019-04-03T20:39:55.151Z,81.80
2019-04-03T20:42:22.879Z,81.40
2019-04-03T20:44:52.058Z,81.10
2019-04-03T20:47:19.676Z,82.30
2019-04-03T20:49:47.469Z,82.50
2019-04-03T20:52:15.215Z,83.50
2019-04-03T20:54:43.016Z,81.90
2019-04-03T20:57:13.365Z,83.50
2019-04-03T20:59:42.722Z,82.70
2019-04-03T21:02:09.875Z,82.40
2019-04-03T21:04:37.663Z,84.40
2019-04-03T21:07:05.854Z,82.60
2019-04-03T21:09:33.652Z,82.90
2019-04-03T21:12:02.976Z,83.40
2019-04-03T21:14:31.574Z,83.10
2019-04-03T21:17:01.486Z,81.60
2019-04-03T21:19:29.548Z,81.50
2019-04-03T21:21:57.707Z,80.90
2019-04-03T21:24:34.311Z,80.80
2019-04-03T21:27:04.163Z,80.40
2019-04-03T21:29:33.135Z,81.10
2019-04-03T21:32:02.132Z,81.20
2019-04-03T21:34:32.751Z,80.70
2019-04-03T21:37:02.078Z,80.70
2019-04-03T21:39:33.645Z,81.40
2019-04-03T21:42:02.520Z,81.50
2019-04-03T21:44:32.567Z,80.40
2019-04-03T21:47:34.487Z,80.80
2019-04-03T21:50:05.589Z,81.50
2019-04-03T21:52:34.535Z,82.20
2019-04-03T21:55:04.929Z,82.80
2019-04-03T21:57:33.899Z,83.00
2019-04-03T22:00:13.200Z,83.90
2019-04-03T22:05:43.233Z,84.50
2019-04-03T22:08:21.671Z,83.80
2019-04-03T22:10:50.559Z,85.30
2019-04-03T22:13:18.526Z,83.80
2019-04-03T22:15:46.495Z,85.00
2019-04-03T22:18:14.479Z,84.80
2019-04-03T22:20:42.508Z,84.50
2019-04-03T22:23:10.633Z,85.60
2019-04-03T22:25:39.501Z,85.40
2019-04-03T22:28:07.797Z,87.10
2019-04-03T22:30:35.702Z,87.30
2019-04-03T22:33:03.911Z,87.80
2019-04-03T22:35:32.150Z,88.20
2019-04-03T22:38:00.997Z,89.40
2019-04-03T22:40:28.757Z,89.20
2019-04-03T22:42:56.552Z,90.10
2019-04-03T22:45:24.364Z,89.70
2019-04-03T22:47:52.300Z,91.00
2019-04-03T22:50:20.409Z,90.40
2019-04-03T22:52:48.120Z,92.30
2019-04-03T22:55:16.144Z,91.50
2019-04-03T22:57:44.076Z,92.50
2019-04-03T23:00:11.876Z,92.50
2019-04-03T23:02:40.717Z,93.70
2019-04-03T23:05:08.779Z,91.80
2019-04-03T23:07:36.882Z,91.90
2019-04-03T23:10:05.637Z,91.30
2019-04-03T23:12:33.998Z,90.10
2019-04-03T23:15:02.098Z,88.90
2019-04-03T23:17:30.027Z,92.20
2019-04-03T23:19:58.235Z,91.50
2019-04-03T23:22:26.608Z,89.80
2019-04-03T23:24:54.819Z,90.10
2019-04-03T23:27:24.268Z,91.20
2019-04-03T23:29:52.411Z,92.60
2019-04-03T23:32:20.458Z,92.10
2019-04-03T23:34:49.739Z,92.80
2019-04-03T23:37:17.964Z,92.80
2019-04-03T23:39:45.783Z,91.80
2019-04-03T23:42:19.997Z,91.50
2019-04-03T23:44:47.935Z,92.40
2019-04-03T23:47:16.595Z,90.50
2019-04-03T23:49:45.181Z,92.00
2019-04-03T23:52:13.469Z,88.70
2019-04-03T23:54:41.539Z,89.20
2019-04-03T23:57:10.310Z,90.60
2019-04-03T23:59:42.447Z,91.60
